createdAt,value
2023-02-14T00:00:56.810Z,20.52
2023-02-14T00:03:32.404Z,19.73
2023-02-14T00:06:11.430Z,18.98
2023-02-14T00:08:39.459Z,18.63
2023-02-14T00:11:06.250Z,19.00
2023-02-14T00:13:32.851Z,18.23
2023-02-14T00:15:59.612Z,19.00
2023-02-14T00:18:46.535Z,20.00
2023-02-14T00:21:13.182Z,18.55
2023-02-14T00:23:40.023Z,17.58
2023-02-14T00:26:13.347Z,18.63
2023-02-14T00:28:41.479Z,19.50
2023-02-14T00:31:08.350Z,17.17
2023-02-14T00:33:35.204Z,18.67
2023-02-14T00:36:06.958Z,17.88
2023-02-14T00:38:34.013Z,19.35
2023-02-14T00:41:00.927Z,20.13
2023-02-14T00:43:27.746Z,18.48
2023-02-14T00:45:54.430Z,19.98
2023-02-14T00:48:21.168Z,19.75
2023-02-14T00:50:47.840Z,20.27
2023-02-14T00:53:14.460Z,17.90
2023-02-14T00:55:41.104Z,18.70
2023-02-14T00:58:08.243Z,18.50
2023-02-14T01:00:34.923Z,19.08
2023-02-14T01:03:01.538Z,20.60
2023-02-14T01:05:29.038Z,18.45
2023-02-14T01:07:55.918Z,19.05
2023-02-14T01:10:22.559Z,17.65
2023-02-14T01:12:49.197Z,18.00
2023-02-14T01:15:15.780Z,17.95
2023-02-14T01:17:44.050Z,17.73
2023-02-14T01:20:10.890Z,18.35
2023-02-14T01:42:36.967Z,16.48
2023-02-14T01:45:18.729Z,18.15
2023-02-14T01:47:50.555Z,17.92
2023-02-14T01:50:32.242Z,17.73
2023-02-14T01:53:03.082Z,17.95
2023-02-14T01:55:33.096Z,17.88
2023-02-14T01:58:07.013Z,16.88
2023-02-14T02:00:52.251Z,17.58
2023-02-14T02:03:19.552Z,18.00
2023-02-14T02:05:48.895Z,17.88
2023-02-14T02:08:15.957Z,17.73
2023-02-14T02:10:44.048Z,16.95
2023-02-14T02:13:17.555Z,17.92
2023-02-14T02:16:30.698Z,17.85
2023-02-14T02:19:21.922Z,17.65
2023-02-14T02:22:38.009Z,18.70
2023-02-14T02:25:23.521Z,17.80
2023-02-14T02:27:53.557Z,16.63
2023-02-14T02:30:53.792Z,16.35
2023-02-14T02:33:39.152Z,16.98
2023-02-14T02:36:13.696Z,18.58
2023-02-14T02:39:00.235Z,16.58
2023-02-14T02:41:29.815Z,16.48
2023-02-14T02:44:17.061Z,16.15
2023-02-14T02:47:05.105Z,15.07
2023-02-14T02:50:22.927Z,14.88
2023-02-14T02:53:06.158Z,14.30
2023-02-14T02:55:57.124Z,16.30
2023-02-14T02:58:27.867Z,16.25
2023-02-14T03:00:57.491Z,16.52
2023-02-14T03:03:44.401Z,15.98
2023-02-14T03:06:11.161Z,16.10
2023-02-14T03:08:37.845Z,15.52
2023-02-14T03:11:05.126Z,14.07
2023-02-14T03:14:08.492Z,14.82
2023-02-14T03:16:41.736Z,15.10
2023-02-14T03:19:40.817Z,14.98
2023-02-14T03:22:22.410Z,14.02
2023-02-14T03:24:53.921Z,14.50
2023-02-14T03:27:39.313Z,14.40
2023-02-14T03:30:08.714Z,15.00
2023-02-14T03:32:48.216Z,14.23
2023-02-14T03:35:25.611Z,14.52
2023-02-14T03:38:07.974Z,14.27
2023-02-14T03:40:44.642Z,14.43
2023-02-14T03:43:20.334Z,13.73
2023-02-14T03:45:53.732Z,13.20
2023-02-14T03:48:21.867Z,13.57
2023-02-14T03:50:50.258Z,13.57
2023-02-14T03:53:20.487Z,13.02
2023-02-14T03:55:53.038Z,13.27
2023-02-14T03:58:27.460Z,13.43
2023-02-14T04:01:01.087Z,12.88
2023-02-14T04:03:28.783Z,14.13
2023-02-14T04:05:55.546Z,14.52
2023-02-14T04:08:25.898Z,13.00
2023-02-14T04:10:53.294Z,13.80
2023-02-14T04:13:20.530Z,14.60
2023-02-14T04:15:47.130Z,13.43
2023-02-14T04:18:32.541Z,12.93
2023-02-14T04:21:00.725Z,13.13
2023-02-14T04:23:27.601Z,13.10
2023-02-14T04:25:54.421Z,13.82
2023-02-14T04:28:21.124Z,13.88
2023-02-14T04:30:47.769Z,14.07
2023-02-14T04:33:14.387Z,14.88
2023-02-14T04:35:41.081Z,12.63
2023-02-14T04:38:07.902Z,13.25
2023-02-14T04:40:34.513Z,13.55
2023-02-14T04:43:01.519Z,12.40
2023-02-14T04:45:28.097Z,13.88
2023-02-14T04:47:54.755Z,14.02
2023-02-14T04:50:23.402Z,12.82
2023-02-14T04:52:50.018Z,14.45
2023-02-14T04:55:16.793Z,14.50
2023-02-14T04:57:43.415Z,12.60
2023-02-14T05:00:10.549Z,11.55
2023-02-14T05:02:37.400Z,13.18
2023-02-14T05:05:04.391Z,12.93
2023-02-14T05:07:31.037Z,13.77
2023-02-14T05:09:57.654Z,14.65
2023-02-14T05:12:24.250Z,13.55
2023-02-14T05:14:50.844Z,13.20
2023-02-14T05:17:17.549Z,12.35
2023-02-14T05:19:44.182Z,13.10
2023-02-14T05:22:10.793Z,13.30
2023-02-14T05:24:37.364Z,13.98
2023-02-14T05:27:03.960Z,13.20
2023-02-14T05:29:30.582Z,14.20
2023-02-14T05:31:57.234Z,13.20
2023-02-14T05:34:23.869Z,13.65
2023-02-14T05:36:50.473Z,14.32
2023-02-14T05:39:17.115Z,14.40
2023-02-14T05:41:43.842Z,13.87
2023-02-14T05:44:10.492Z,15.10
2023-02-14T05:46:37.190Z,15.43
2023-02-14T05:49:04.100Z,13.82
2023-02-14T05:51:30.893Z,15.33
2023-02-14T05:53:59.929Z,14.85
2023-02-14T05:56:26.981Z,14.65
2023-02-14T05:58:53.532Z,14.00
2023-02-14T06:01:20.106Z,14.32
2023-02-14T06:03:46.705Z,13.55
2023-02-14T06:06:13.306Z,12.80
2023-02-14T06:08:39.980Z,14.47
2023-02-14T06:11:06.621Z,13.53
2023-02-14T06:13:33.260Z,13.80
2023-02-14T06:15:59.862Z,11.90
2023-02-14T06:18:29.532Z,13.38
2023-02-14T06:20:56.604Z,14.43
2023-02-14T06:23:23.193Z,13.77
2023-02-14T06:25:49.752Z,13.13
2023-02-14T06:28:16.314Z,13.17
2023-02-14T06:30:43.092Z,12.70
2023-02-14T06:33:09.839Z,13.65
2023-02-14T06:35:36.446Z,13.13
2023-02-14T06:38:03.095Z,11.53
2023-02-14T06:40:29.756Z,13.07
2023-02-14T06:42:56.370Z,13.70
2023-02-14T06:45:22.980Z,13.48
2023-02-14T06:47:49.600Z,13.97
2023-02-14T06:50:16.294Z,12.93
2023-02-14T06:52:44.399Z,13.67
2023-02-14T06:55:13.198Z,13.60
2023-02-14T06:57:40.316Z,14.00
2023-02-14T07:00:10.003Z,14.10
2023-02-14T07:02:36.601Z,15.35
2023-02-14T07:05:03.232Z,15.73
2023-02-14T07:07:29.826Z,16.13
2023-02-14T07:09:56.409Z,16.95
2023-02-14T07:12:22.993Z,17.98
2023-02-14T07:14:49.573Z,14.80
2023-02-14T07:17:16.177Z,14.35
2023-02-14T07:19:42.817Z,14.70
2023-02-14T07:22:09.426Z,17.52
2023-02-14T07:24:35.997Z,18.27
2023-02-14T07:27:02.564Z,17.37
2023-02-14T07:29:29.137Z,15.80
2023-02-14T07:31:55.946Z,16.95
2023-02-14T07:34:22.707Z,16.13
2023-02-14T07:36:49.317Z,16.30
2023-02-14T07:39:15.924Z,16.35
2023-02-14T07:41:42.544Z,17.55
2023-02-14T07:44:10.576Z,15.85
2023-02-14T07:46:37.309Z,16.23
2023-02-14T07:49:04.183Z,14.98
2023-02-14T07:51:30.815Z,16.13
2023-02-14T07:53:57.368Z,16.25
2023-02-14T07:56:24.037Z,17.35
2023-02-14T07:58:50.664Z,16.88
2023-02-14T08:01:17.755Z,18.63
2023-02-14T08:03:45.978Z,19.55
2023-02-14T08:06:12.697Z,18.00
2023-02-14T08:08:39.346Z,19.60
2023-02-14T08:11:06.037Z,18.17
2023-02-14T08:13:32.894Z,17.70
2023-02-14T08:16:05.723Z,18.25
2023-02-14T08:18:34.895Z,19.90
2023-02-14T08:21:01.998Z,18.80
2023-02-14T08:23:29.027Z,18.77
2023-02-14T08:25:55.890Z,17.10
2023-02-14T08:28:22.736Z,18.13
2023-02-14T08:30:50.475Z,16.83
2023-02-14T08:33:17.520Z,16.42
2023-02-14T08:35:44.261Z,15.93
2023-02-14T08:38:10.959Z,16.60
2023-02-14T08:40:37.757Z,16.38
2023-02-14T08:43:06.004Z,17.33
2023-02-14T08:45:32.735Z,16.75
2023-02-14T08:48:07.813Z,18.17
2023-02-14T08:50:35.686Z,16.50
2023-02-14T08:53:07.181Z,15.45
2023-02-14T08:55:34.880Z,15.90
2023-02-14T08:58:01.796Z,15.45
2023-02-14T09:00:28.710Z,14.02
2023-02-14T09:02:55.496Z,13.75
2023-02-14T09:05:23.391Z,14.88
2023-02-14T09:07:50.312Z,15.98
2023-02-14T09:10:18.633Z,13.75
2023-02-14T09:12:45.605Z,13.73
2023-02-14T09:15:13.130Z,15.63
2023-02-14T09:17:39.830Z,15.57
2023-02-14T09:20:08.469Z,15.73
2023-02-14T09:22:35.305Z,16.20
2023-02-14T09:25:02.459Z,16.02
2023-02-14T09:27:29.111Z,15.50
2023-02-14T09:29:55.834Z,16.38
2023-02-14T09:32:22.803Z,17.63
2023-02-14T09:35:07.888Z,15.25
2023-02-14T09:37:34.553Z,19.33
2023-02-14T09:40:01.216Z,16.20
2023-02-14T09:42:37.554Z,16.33
2023-02-14T09:45:25.364Z,16.42
2023-02-14T09:47:58.713Z,15.52
2023-02-14T09:50:25.306Z,14.45
2023-02-14T09:52:57.128Z,15.27
2023-02-14T09:55:25.045Z,14.23
2023-02-14T09:58:17.607Z,12.32
2023-02-14T10:00:56.161Z,12.07
2023-02-14T10:03:25.726Z,11.32
2023-02-14T10:06:16.702Z,11.48
2023-02-14T10:08:55.899Z,12.13
2023-02-14T10:11:27.499Z,11.10
2023-02-14T10:14:05.520Z,10.02
2023-02-14T10:16:36.670Z,10.27
2023-02-14T10:19:17.345Z,11.05
2023-02-14T10:21:57.308Z,9.52
2023-02-14T10:24:30.778Z,10.25
2023-02-14T10:27:11.144Z,10.23
2023-02-14T10:29:39.123Z,9.95
2023-02-14T10:32:14.446Z,9.93
2023-02-14T10:34:48.295Z,11.05
2023-02-14T10:37:26.973Z,10.23
2023-02-14T10:39:59.575Z,9.25
2023-02-14T10:42:36.676Z,8.38
2023-02-14T10:45:22.294Z,8.93
2023-02-14T10:48:13.816Z,9.30
2023-02-14T10:50:52.980Z,8.13
2023-02-14T10:53:35.303Z,8.80
2023-02-14T10:56:08.838Z,8.50
2023-02-14T10:58:38.403Z,8.10
2023-02-14T11:01:12.701Z,7.47
2023-02-14T11:03:43.849Z,8.45
2023-02-14T11:06:11.437Z,8.15
2023-02-14T11:08:41.498Z,8.20
2023-02-14T11:11:17.841Z,8.65
2023-02-14T11:13:44.864Z,7.97
2023-02-14T11:16:14.120Z,7.35
2023-02-14T11:18:41.503Z,8.48
2023-02-14T11:21:10.660Z,7.43
2023-02-14T11:23:45.970Z,8.65
2023-02-14T11:26:22.946Z,8.05
2023-02-14T11:28:54.644Z,8.32
2023-02-14T11:31:29.971Z,7.78
2023-02-14T11:33:58.388Z,7.40
2023-02-14T11:36:25.555Z,7.90
2023-02-14T11:39:00.912Z,7.60
2023-02-14T11:41:27.542Z,7.85
2023-02-14T11:44:13.871Z,7.70
2023-02-14T11:46:51.143Z,7.60
2023-02-14T11:49:33.746Z,6.90
2023-02-14T11:52:11.796Z,7.10
2023-02-14T11:54:40.380Z,7.32
2023-02-14T11:57:08.266Z,7.30
2023-02-14T11:59:41.054Z,7.63
2023-02-14T12:02:32.879Z,7.18
2023-02-14T12:05:06.785Z,7.78
2023-02-14T12:07:36.402Z,7.53
2023-02-14T12:10:18.248Z,8.70
2023-02-14T12:13:00.399Z,7.88
2023-02-14T12:15:30.101Z,7.88
2023-02-14T12:18:03.842Z,7.88
2023-02-14T12:20:45.832Z,7.13
2023-02-14T12:23:17.245Z,7.88
2023-02-14T12:25:58.676Z,7.32
2023-02-14T12:28:31.456Z,7.30
2023-02-14T12:30:59.030Z,6.85
2023-02-14T12:33:26.043Z,7.25
2023-02-14T12:36:07.767Z,7.22
2023-02-14T12:38:49.435Z,7.38
2023-02-14T12:41:41.019Z,7.03
2023-02-14T12:44:11.165Z,7.60
2023-02-14T12:47:15.775Z,7.65
2023-02-14T12:49:56.950Z,7.57
2023-02-14T12:52:35.100Z,7.13
2023-02-14T12:55:05.049Z,7.85
2023-02-14T12:57:56.076Z,6.80
2023-02-14T13:00:35.777Z,7.53
2023-02-14T13:03:31.907Z,7.68
2023-02-14T13:06:28.446Z,7.40
2023-02-14T13:09:01.311Z,7.00
2023-02-14T13:11:39.521Z,7.38
2023-02-14T13:14:24.358Z,7.13
2023-02-14T13:17:03.528Z,7.95
2023-02-14T13:19:36.278Z,8.02
2023-02-14T13:22:05.070Z,7.75
2023-02-14T13:24:39.610Z,7.88
2023-02-14T13:27:07.597Z,7.93
2023-02-14T13:29:43.494Z,7.90
2023-02-14T13:32:12.954Z,7.03
2023-02-14T13:34:44.649Z,7.40
2023-02-14T13:37:13.867Z,7.25
2023-02-14T13:39:44.068Z,7.13
2023-02-14T13:42:11.403Z,7.78
2023-02-14T13:44:49.382Z,6.80
2023-02-14T13:47:27.007Z,6.95
2023-02-14T13:50:00.325Z,7.10
2023-02-14T13:52:47.993Z,7.50
2023-02-14T13:55:28.385Z,6.93
2023-02-14T13:58:02.232Z,7.80
2023-02-14T14:00:38.201Z,7.30
2023-02-14T14:03:06.346Z,6.93
2023-02-14T14:05:32.927Z,6.85
2023-02-14T14:08:18.853Z,7.43
2023-02-14T14:10:56.723Z,7.03
2023-02-14T14:13:42.039Z,6.72
2023-02-14T14:16:24.288Z,6.93
2023-02-14T14:18:52.805Z,7.30
2023-02-14T14:21:28.516Z,7.20
2023-02-14T14:24:26.489Z,7.95
2023-02-14T14:27:15.737Z,7.05
2023-02-14T14:30:05.846Z,6.35
2023-02-14T14:32:35.309Z,6.88
2023-02-14T14:35:28.281Z,7.70
2023-02-14T14:37:57.434Z,7.43
2023-02-14T14:40:32.013Z,7.57
2023-02-14T14:43:37.225Z,6.90
2023-02-14T14:46:04.911Z,6.82
2023-02-14T14:48:37.937Z,7.25
2023-02-14T14:51:06.635Z,6.80
2023-02-14T14:54:03.405Z,6.97
2023-02-14T14:56:33.323Z,8.43
2023-02-14T14:59:22.449Z,8.20
2023-02-14T15:01:50.243Z,7.25
2023-02-14T15:04:20.081Z,7.40
2023-02-14T15:06:47.631Z,7.70
2023-02-14T15:09:36.072Z,6.85
2023-02-14T15:12:21.780Z,7.82
2023-02-14T15:14:54.737Z,7.40
2023-02-14T15:17:30.021Z,6.43
2023-02-14T15:19:59.285Z,7.75
2023-02-14T15:22:40.849Z,8.25
2023-02-14T15:25:10.232Z,7.20
2023-02-14T15:27:40.602Z,6.88
2023-02-14T15:30:19.545Z,6.97
2023-02-14T15:32:47.871Z,7.05
2023-02-14T15:35:16.212Z,6.70
2023-02-14T15:37:43.822Z,6.53
2023-02-14T15:40:23.035Z,6.40
2023-02-14T15:42:56.422Z,6.10
2023-02-14T15:45:30.709Z,6.70
2023-02-14T15:48:19.440Z,6.03
2023-02-14T15:50:47.437Z,6.65
2023-02-14T15:53:20.072Z,6.35
2023-02-14T15:55:49.703Z,6.43
2023-02-14T15:58:22.549Z,5.72
2023-02-14T16:00:50.373Z,6.38
2023-02-14T16:03:21.442Z,6.35
2023-02-14T16:05:49.289Z,6.93
2023-02-14T16:08:37.078Z,7.45
2023-02-14T16:11:16.084Z,8.80
2023-02-14T16:13:44.871Z,8.27
2023-02-14T16:16:13.790Z,8.57
2023-02-14T16:18:45.963Z,7.70
2023-02-14T16:21:20.081Z,7.75
2023-02-14T16:24:10.533Z,6.63
2023-02-14T16:26:39.428Z,6.75
2023-02-14T16:29:14.826Z,7.13
2023-02-14T16:32:15.748Z,6.43
2023-02-14T16:34:38.738Z,6.80
2023-02-14T16:37:17.929Z,6.82
2023-02-14T16:39:44.732Z,7.10
2023-02-14T16:42:16.703Z,7.35
2023-02-14T16:44:44.616Z,6.90
2023-02-14T16:47:18.934Z,7.38
2023-02-14T16:49:45.745Z,7.30
2023-02-14T16:52:23.447Z,7.75
2023-02-14T16:54:50.644Z,8.52
2023-02-14T16:57:38.426Z,8.77
2023-02-14T17:00:06.575Z,8.20
2023-02-14T17:02:36.503Z,10.68
2023-02-14T17:05:03.267Z,9.38
2023-02-14T17:07:31.744Z,24.45
2023-02-14T17:10:18.484Z,22.92
2023-02-14T17:12:45.889Z,27.95
2023-02-14T17:15:20.361Z,33.50
2023-02-14T17:17:48.698Z,22.90
2023-02-14T17:20:15.440Z,15.65
2023-02-14T17:22:42.687Z,12.75
2023-02-14T17:25:09.964Z,11.20
2023-02-14T17:27:37.592Z,10.90
2023-02-14T17:30:04.780Z,17.50
2023-02-14T17:32:31.562Z,12.95
2023-02-14T17:34:58.346Z,17.63
2023-02-14T17:37:25.113Z,15.65
2023-02-14T17:39:53.026Z,15.05
2023-02-14T17:42:20.238Z,14.35
2023-02-14T17:44:46.878Z,16.92
2023-02-14T17:47:15.037Z,18.40
2023-02-14T17:49:42.524Z,19.02
2023-02-14T17:52:09.269Z,18.90
2023-02-14T17:54:39.239Z,18.05
2023-02-14T17:57:05.945Z,15.98
2023-02-14T17:59:33.172Z,16.45
2023-02-14T18:02:00.072Z,16.55
2023-02-14T18:04:26.961Z,19.08
2023-02-14T18:06:53.692Z,19.40
2023-02-14T18:09:21.561Z,22.48
2023-02-14T18:11:49.918Z,22.38
2023-02-14T18:14:16.744Z,23.80
2023-02-14T18:16:46.424Z,24.58
2023-02-14T18:19:15.890Z,29.98
2023-02-14T18:21:44.517Z,29.27
2023-02-14T18:24:11.887Z,28.10
2023-02-14T18:26:40.389Z,27.40
2023-02-14T18:29:07.956Z,29.33
2023-02-14T18:31:36.593Z,26.23
2023-02-14T18:34:03.602Z,21.40
2023-02-14T18:36:35.068Z,26.13
2023-02-14T18:39:01.763Z,34.58
2023-02-14T18:41:29.708Z,37.97
2023-02-14T18:43:56.624Z,23.48
2023-02-14T18:46:25.941Z,22.77
2023-02-14T18:48:53.144Z,21.15
2023-02-14T18:51:24.632Z,26.58
2023-02-14T18:53:54.893Z,29.33
2023-02-14T18:56:25.473Z,23.80
2023-02-14T18:58:57.184Z,21.88
2023-02-14T19:01:28.653Z,21.98
2023-02-14T19:03:56.369Z,22.60
2023-02-14T19:06:23.616Z,21.95
2023-02-14T19:08:51.047Z,21.92
2023-02-14T19:11:20.167Z,21.92
2023-02-14T19:13:49.111Z,26.50
2023-02-14T19:16:18.194Z,24.70
2023-02-14T19:18:45.375Z,22.33
2023-02-14T19:21:16.353Z,24.10
2023-02-14T19:23:43.047Z,23.30
2023-02-14T19:26:14.266Z,22.60
2023-02-14T19:28:41.469Z,20.10
2023-02-14T19:31:08.784Z,22.08
2023-02-14T19:33:44.980Z,21.20
2023-02-14T19:36:14.042Z,21.17
2023-02-14T19:38:42.594Z,23.50
2023-02-14T19:41:17.117Z,21.40
2023-02-14T19:43:45.874Z,27.10
2023-02-14T19:46:16.624Z,23.38
2023-02-14T19:48:44.628Z,20.73
2023-02-14T19:51:25.752Z,22.98
2023-02-14T19:53:52.477Z,22.27
2023-02-14T19:56:24.652Z,23.65
2023-02-14T19:58:52.258Z,23.08
2023-02-14T20:01:29.216Z,22.35
2023-02-14T20:03:56.263Z,21.92
2023-02-14T20:06:24.798Z,23.20
2023-02-14T20:08:51.796Z,24.85
2023-02-14T20:11:31.749Z,23.17
2023-02-14T20:13:59.608Z,21.48
2023-02-14T20:16:27.529Z,19.75
2023-02-14T20:18:54.478Z,24.27
2023-02-14T20:21:25.615Z,20.92
2023-02-14T20:23:52.390Z,22.55
2023-02-14T20:26:19.532Z,22.83
2023-02-14T20:28:48.687Z,24.90
2023-02-14T20:31:22.103Z,24.50
2023-02-14T20:33:51.641Z,23.85
2023-02-14T20:36:19.340Z,24.45
2023-02-14T20:38:46.059Z,25.15
2023-02-14T20:41:16.551Z,24.92
2023-02-14T20:43:43.343Z,24.25
2023-02-14T20:46:10.482Z,25.27
2023-02-14T20:48:37.446Z,25.25
2023-02-14T20:51:18.085Z,26.65
2023-02-14T20:53:45.764Z,28.70
2023-02-14T20:56:13.244Z,27.83
2023-02-14T20:58:40.460Z,28.05
2023-02-14T21:01:15.615Z,30.58
2023-02-14T21:03:46.350Z,30.23
2023-02-14T21:06:14.589Z,32.10
2023-02-14T21:08:42.527Z,30.95
2023-02-14T21:11:11.629Z,30.73
2023-02-14T21:13:38.543Z,30.25
2023-02-14T21:16:08.469Z,30.55
2023-02-14T21:18:35.883Z,31.00
2023-02-14T21:21:12.230Z,32.45
2023-02-14T21:23:38.988Z,32.47
2023-02-14T21:26:05.659Z,31.35
2023-02-14T21:28:32.322Z,34.90
2023-02-14T21:31:06.290Z,33.72
2023-02-14T21:33:33.383Z,30.10
2023-02-14T21:36:11.215Z,31.90
2023-02-14T21:38:37.900Z,31.63
2023-02-14T21:41:12.350Z,31.20
2023-02-14T21:43:40.953Z,30.27
2023-02-14T21:46:10.057Z,30.38
2023-02-14T21:48:55.372Z,31.05
2023-02-14T21:51:22.619Z,31.05
2023-02-14T21:53:49.339Z,33.97
2023-02-14T21:56:19.645Z,30.50
2023-02-14T21:58:51.327Z,28.27
2023-02-14T22:01:23.292Z,30.73
2023-02-14T22:03:50.186Z,31.00
2023-02-14T22:06:17.085Z,28.83
2023-02-14T22:08:44.138Z,29.20
2023-02-14T22:11:13.262Z,27.88
2023-02-14T22:13:40.172Z,28.35
2023-02-14T22:16:09.789Z,26.00
2023-02-14T22:18:36.776Z,26.60
2023-02-14T22:21:10.388Z,26.75
2023-02-14T22:23:38.279Z,26.60
2023-02-14T22:26:14.979Z,27.02
2023-02-14T22:28:43.005Z,28.77
2023-02-14T22:31:10.435Z,29.35
2023-02-14T22:33:37.983Z,29.35
2023-02-14T22:36:06.154Z,28.50
2023-02-14T22:38:33.268Z,27.67
2023-02-14T22:41:14.366Z,26.83
2023-02-14T22:43:41.681Z,27.67
2023-02-14T22:46:22.261Z,27.52
2023-02-14T22:48:50.230Z,26.48
2023-02-14T22:51:29.901Z,27.27
2023-02-14T22:53:59.445Z,26.42
2023-02-14T22:56:28.791Z,26.25
2023-02-14T22:59:04.884Z,27.23
2023-02-14T23:01:33.062Z,27.05
2023-02-14T23:04:01.064Z,27.27
2023-02-14T23:06:29.331Z,27.35
2023-02-14T23:08:56.476Z,27.85
2023-02-14T23:11:25.908Z,26.98
2023-02-14T23:14:11.410Z,29.10
2023-02-14T23:16:56.493Z,27.08
2023-02-14T23:19:44.412Z,27.63
2023-02-14T23:22:12.290Z,26.23
2023-02-14T23:24:39.014Z,27.05
2023-02-14T23:27:06.399Z,28.35
2023-02-14T23:29:33.202Z,29.63
2023-02-14T23:31:59.970Z,28.92
2023-02-14T23:34:31.654Z,31.05
2023-02-14T23:36:58.433Z,29.75
2023-02-14T23:39:25.190Z,30.25
2023-02-14T23:41:52.151Z,29.05
2023-02-14T23:44:24.233Z,29.38
2023-02-14T23:46:53.668Z,30.55
2023-02-14T23:49:20.817Z,33.13
2023-02-14T23:51:49.101Z,31.75
2023-02-14T23:54:16.694Z,32.88
2023-02-14T23:56:43.937Z,34.10
2023-02-14T23:59:13.241Z,30.27
